Terminal Aerodrome Forecast
Issued by NWS

Current Version | Previous Version | Text Only | Print | Product List | Glossary On
Versions: 1 2 3 4 5 6 7 8 9 10 11 12 13 14 15 16 17 18 19 20 21 22
000
FTUS42 KTAE 232300 AAA
TAFECP
TAF AMD
KECP 232347Z 2400/2424 14008KT 1SM RA SCT002 BKN030
     FM240100 18007KT 6SM BR BKN010 OVC020
     FM240400 18007KT 5SM BR OVC004
     FM241500 25010G20KT P6SM BKN012
     FM241800 27010G15KT P6SM SKC=

USA.gov is the U.S. government's official web portal to all federal, state and local government web resources and services.